sensor_id;sensor_type;location;lat;lon;timestamp;noise_LAeq;noise_LA_min;noise_LA_max;noise_LA01;noise_LA95
45651;Laerm;31365;48.858;8.530;2023-03-09T00:04:15;50.99;44.58;75.95;;
45651;Laerm;31365;48.858;8.530;2023-03-09T00:06:44;57.54;45.14;82.75;;
45651;Laerm;31365;48.858;8.530;2023-03-09T00:09:14;56.80;44.19;79.91;;
45651;Laerm;31365;48.858;8.530;2023-03-09T00:11:46;59.62;43.58;81.00;;
45651;Laerm;31365;48.858;8.530;2023-03-09T00:14:17;54.48;43.09;72.69;;
45651;Laerm;31365;48.858;8.530;2023-03-09T00:16:48;45.66;41.96;60.20;;
45651;Laerm;31365;48.858;8.530;2023-03-09T00:19:17;53.13;41.06;83.31;;
45651;Laerm;31365;48.858;8.530;2023-03-09T00:21:48;43.90;40.33;61.06;;
45651;Laerm;31365;48.858;8.530;2023-03-09T00:24:21;48.50;39.81;76.79;;
45651;Laerm;31365;48.858;8.530;2023-03-09T00:26:57;45.78;41.68;68.01;;
45651;Laerm;31365;48.858;8.530;2023-03-09T00:29:29;51.18;42.09;75.38;;
45651;Laerm;31365;48.858;8.530;2023-03-09T00:31:58;43.96;41.14;62.61;;
45651;Laerm;31365;48.858;8.530;2023-03-09T00:34:27;47.60;41.89;77.10;;
45651;Laerm;31365;48.858;8.530;2023-03-09T00:36:56;56.96;41.14;74.92;;
45651;Laerm;31365;48.858;8.530;2023-03-09T00:39:25;47.28;41.46;70.06;;
45651;Laerm;31365;48.858;8.530;2023-03-09T00:41:54;60.06;41.96;87.87;;
45651;Laerm;31365;48.858;8.530;2023-03-09T00:44:24;55.71;41.75;84.79;;
45651;Laerm;31365;48.858;8.530;2023-03-09T00:46:52;57.86;42.09;89.46;;
45651;Laerm;31365;48.858;8.530;2023-03-09T00:49:21;59.71;43.19;93.38;;
45651;Laerm;31365;48.858;8.530;2023-03-09T00:51:49;53.67;43.04;78.35;;
45651;Laerm;31365;48.858;8.530;2023-03-09T00:54:18;55.04;43.63;79.04;;
45651;Laerm;31365;48.858;8.530;2023-03-09T00:56:46;48.70;43.09;71.96;;
45651;Laerm;31365;48.858;8.530;2023-03-09T00:59:16;59.96;43.44;92.37;;
45651;Laerm;31365;48.858;8.530;2023-03-09T01:01:45;52.40;44.07;75.91;;
45651;Laerm;31365;48.858;8.530;2023-03-09T01:04:14;49.66;43.04;75.30;;
45651;Laerm;31365;48.858;8.530;2023-03-09T01:06:43;47.74;40.43;71.28;;
45651;Laerm;31365;48.858;8.530;2023-03-09T01:09:11;57.05;43.04;77.70;;
45651;Laerm;31365;48.858;8.530;2023-03-09T01:11:40;57.95;42.53;80.35;;
45651;Laerm;31365;48.858;8.530;2023-03-09T01:14:08;57.18;41.96;77.87;;
45651;Laerm;31365;48.858;8.530;2023-03-09T01:16:39;56.13;41.30;75.54;;
45651;Laerm;31365;48.858;8.530;2023-03-09T01:19:08;50.57;42.76;79.35;;
45651;Laerm;31365;48.858;8.530;2023-03-09T01:21:37;54.67;42.88;81.43;;
45651;Laerm;31365;48.858;8.530;2023-03-09T01:24:05;58.04;43.58;77.94;;
45651;Laerm;31365;48.858;8.530;2023-03-09T01:26:34;64.93;44.76;94.47;;
45651;Laerm;31365;48.858;8.530;2023-03-09T01:29:02;65.02;43.54;95.00;;
45651;Laerm;31365;48.858;8.530;2023-03-09T01:31:31;53.92;41.46;84.01;;
45651;Laerm;31365;48.858;8.530;2023-03-09T01:34:01;59.30;42.35;77.82;;
45651;Laerm;31365;48.858;8.530;2023-03-09T01:36:30;51.10;42.22;71.53;;
45651;Laerm;31365;48.858;8.530;2023-03-09T01:38:59;51.37;41.46;82.21;;
45651;Laerm;31365;48.858;8.530;2023-03-09T01:41:27;47.28;41.38;70.73;;
45651;Laerm;31365;48.858;8.530;2023-03-09T01:43:56;59.30;42.16;89.63;;
45651;Laerm;31365;48.858;8.530;2023-03-09T01:46:39;53.38;43.14;78.92;;
45651;Laerm;31365;48.858;8.530;2023-03-09T01:49:24;49.09;42.35;73.92;;
45651;Laerm;31365;48.858;8.530;2023-03-09T01:52:08;59.04;42.29;87.76;;
45651;Laerm;31365;48.858;8.530;2023-03-09T01:54:45;54.11;42.69;80.13;;
45651;Laerm;31365;48.858;8.530;2023-03-09T01:57:24;54.77;43.68;74.72;;
45651;Laerm;31365;48.858;8.530;2023-03-09T02:00:01;63.76;44.11;82.21;;
45651;Laerm;31365;48.858;8.530;2023-03-09T02:02:45;50.52;41.89;76.89;;
45651;Laerm;31365;48.858;8.530;2023-03-09T02:05:25;47.39;42.22;74.59;;
45651;Laerm;31365;48.858;8.530;2023-03-09T02:07:56;47.11;41.46;73.18;;
45651;Laerm;31365;48.858;8.530;2023-03-09T02:10:33;61.05;41.75;91.86;;
45651;Laerm;31365;48.858;8.530;2023-03-09T02:13:08;50.91;41.14;80.34;;
45651;Laerm;31365;48.858;8.530;2023-03-09T02:15:38;56.45;41.30;83.92;;
45651;Laerm;31365;48.858;8.530;2023-03-09T02:18:07;48.44;41.46;73.72;;
45651;Laerm;31365;48.858;8.530;2023-03-09T02:20:46;54.01;42.47;82.44;;
45651;Laerm;31365;48.858;8.530;2023-03-09T02:23:27;50.59;42.53;75.22;;
45651;Laerm;31365;48.858;8.530;2023-03-09T02:26:08;49.74;41.22;74.43;;
45651;Laerm;31365;48.858;8.530;2023-03-09T02:28:40;51.09;40.62;75.70;;
45651;Laerm;31365;48.858;8.530;2023-03-09T02:31:11;65.99;42.16;87.57;;
45651;Laerm;31365;48.858;8.530;2023-03-09T02:33:41;59.26;43.39;87.06;;
45651;Laerm;31365;48.858;8.530;2023-03-09T02:36:10;60.02;43.00;79.79;;
45651;Laerm;31365;48.858;8.530;2023-03-09T02:38:41;57.51;42.35;83.87;;
45651;Laerm;31365;48.858;8.530;2023-03-09T02:41:12;45.93;43.14;63.25;;
45651;Laerm;31365;48.858;8.530;2023-03-09T02:43:46;49.53;43.09;77.41;;
45651;Laerm;31365;48.858;8.530;2023-03-09T02:46:16;50.27;43.19;76.41;;
45651;Laerm;31365;48.858;8.530;2023-03-09T02:48:45;49.38;43.24;73.14;;
45651;Laerm;31365;48.858;8.530;2023-03-09T02:51:15;54.34;44.19;79.86;;
45651;Laerm;31365;48.858;8.530;2023-03-09T02:53:43;55.45;43.72;85.86;;
45651;Laerm;31365;48.858;8.530;2023-03-09T02:56:12;58.10;43.72;81.32;;
45651;Laerm;31365;48.858;8.530;2023-03-09T02:58:42;48.47;43.49;69.83;;
45651;Laerm;31365;48.858;8.530;2023-03-09T03:01:11;49.79;43.09;79.82;;
45651;Laerm;31365;48.858;8.530;2023-03-09T03:03:40;49.48;42.88;76.28;;
45651;Laerm;31365;48.858;8.530;2023-03-09T03:06:08;58.66;42.16;78.78;;
45651;Laerm;31365;48.858;8.530;2023-03-09T03:08:37;54.81;42.22;75.91;;
45651;Laerm;31365;48.858;8.530;2023-03-09T03:11:09;46.78;41.46;68.80;;
45651;Laerm;31365;48.858;8.530;2023-03-09T03:13:42;48.26;39.70;77.45;;
45651;Laerm;31365;48.858;8.530;2023-03-09T03:16:11;64.08;41.26;81.51;;
45651;Laerm;31365;48.858;8.530;2023-03-09T03:18:39;57.83;40.80;78.39;;
45651;Laerm;31365;48.858;8.530;2023-03-09T03:21:08;44.60;40.89;65.72;;
45651;Laerm;31365;48.858;8.530;2023-03-09T03:23:40;57.75;40.89;87.78;;
45651;Laerm;31365;48.858;8.530;2023-03-09T03:26:10;65.81;41.53;82.64;;
45651;Laerm;31365;48.858;8.530;2023-03-09T03:28:44;49.16;41.68;75.43;;
45651;Laerm;31365;48.858;8.530;2023-03-09T03:31:21;54.83;40.80;74.57;;
45651;Laerm;31365;48.858;8.530;2023-03-09T03:33:51;56.62;41.30;76.83;;
45651;Laerm;31365;48.858;8.530;2023-03-09T03:36:21;50.71;41.06;74.10;;
45651;Laerm;31365;48.858;8.530;2023-03-09T03:38:50;58.18;41.82;76.98;;
45651;Laerm;31365;48.858;8.530;2023-03-09T03:41:19;47.38;40.33;69.44;;
45651;Laerm;31365;48.858;8.530;2023-03-09T03:43:53;43.10;40.33;59.74;;
45651;Laerm;31365;48.858;8.530;2023-03-09T03:46:21;54.74;40.23;81.99;;
45651;Laerm;31365;48.858;8.530;2023-03-09T03:48:49;52.93;40.13;73.14;;
45651;Laerm;31365;48.858;8.530;2023-03-09T03:51:19;60.35;41.46;76.33;;
45651;Laerm;31365;48.858;8.530;2023-03-09T03:53:51;57.64;40.03;78.78;;
45651;Laerm;31365;48.858;8.530;2023-03-09T03:56:20;52.92;40.03;73.14;;
45651;Laerm;31365;48.858;8.530;2023-03-09T03:58:49;55.21;40.80;73.38;;
45651;Laerm;31365;48.858;8.530;2023-03-09T04:01:20;52.10;40.62;70.65;;
45651;Laerm;31365;48.858;8.530;2023-03-09T04:03:54;46.33;38.67;72.90;;
45651;Laerm;31365;48.858;8.530;2023-03-09T04:06:24;55.03;40.80;75.38;;
45651;Laerm;31365;48.858;8.530;2023-03-09T04:08:53;46.64;40.23;68.06;;
45651;Laerm;31365;48.858;8.530;2023-03-09T04:11:21;56.79;41.06;77.81;;
45651;Laerm;31365;48.858;8.530;2023-03-09T04:13:51;54.77;40.53;75.68;;
45651;Laerm;31365;48.858;8.530;2023-03-09T04:16:22;58.14;40.62;77.28;;
45651;Laerm;31365;48.858;8.530;2023-03-09T04:18:52;56.61;41.89;80.31;;
45651;Laerm;31365;48.858;8.530;2023-03-09T04:21:22;64.94;41.41;81.40;;
45651;Laerm;31365;48.858;8.530;2023-03-09T04:23:50;48.95;40.80;80.26;;
45651;Laerm;31365;48.858;8.530;2023-03-09T04:26:20;60.87;41.38;78.05;;
45651;Laerm;31365;48.858;8.530;2023-03-09T04:29:08;63.68;41.30;93.00;;
45651;Laerm;31365;48.858;8.530;2023-03-09T04:31:39;57.63;41.75;78.32;;
45651;Laerm;31365;48.858;8.530;2023-03-09T04:34:09;57.67;40.23;80.52;;
45651;Laerm;31365;48.858;8.530;2023-03-09T04:36:49;61.45;41.89;76.32;;
45651;Laerm;31365;48.858;8.530;2023-03-09T04:39:29;61.89;42.03;78.26;;
45651;Laerm;31365;48.858;8.530;2023-03-09T04:42:03;61.77;40.13;81.70;;
45651;Laerm;31365;48.858;8.530;2023-03-09T04:44:35;64.29;41.82;81.94;;
45651;Laerm;31365;48.858;8.530;2023-03-09T04:49:35;61.33;42.41;77.46;;
45651;Laerm;31365;48.858;8.530;2023-03-09T04:52:04;63.73;42.76;79.26;;
45651;Laerm;31365;48.858;8.530;2023-03-09T04:54:32;63.62;41.14;80.83;;
45651;Laerm;31365;48.858;8.530;2023-03-09T04:57:03;61.59;41.89;77.52;;
45651;Laerm;31365;48.858;8.530;2023-03-09T04:59:32;60.50;42.71;81.80;;
45651;Laerm;31365;48.858;8.530;2023-03-09T05:02:01;62.69;42.71;79.71;;
45651;Laerm;31365;48.858;8.530;2023-03-09T05:04:39;61.75;43.09;79.00;;
45651;Laerm;31365;48.858;8.530;2023-03-09T05:07:08;62.30;41.82;79.24;;
45651;Laerm;31365;48.858;8.530;2023-03-09T05:09:37;65.39;42.53;85.07;;
45651;Laerm;31365;48.858;8.530;2023-03-09T05:12:06;65.39;42.53;85.07;;
45651;Laerm;31365;48.858;8.530;2023-03-09T05:14:37;63.71;42.19;78.26;;
45651;Laerm;31365;48.858;8.530;2023-03-09T05:17:06;61.34;42.29;76.21;;
45651;Laerm;31365;48.858;8.530;2023-03-09T05:19:34;62.17;42.69;75.26;;
45651;Laerm;31365;48.858;8.530;2023-03-09T05:22:06;65.60;42.71;95.07;;
45651;Laerm;31365;48.858;8.530;2023-03-09T05:24:34;62.45;43.72;77.36;;
45651;Laerm;31365;48.858;8.530;2023-03-09T05:27:03;66.37;41.14;81.63;;
45651;Laerm;31365;48.858;8.530;2023-03-09T05:29:33;64.57;43.04;81.57;;
45651;Laerm;31365;48.858;8.530;2023-03-09T05:32:02;65.18;43.72;76.63;;
45651;Laerm;31365;48.858;8.530;2023-03-09T05:34:34;63.87;43.04;77.78;;
45651;Laerm;31365;48.858;8.530;2023-03-09T05:37:03;67.58;44.38;82.91;;
45651;Laerm;31365;48.858;8.530;2023-03-09T05:42:06;65.92;44.51;80.58;;
45651;Laerm;31365;48.858;8.530;2023-03-09T05:44:35;67.91;44.94;83.82;;
45651;Laerm;31365;48.858;8.530;2023-03-09T05:47:05;64.66;45.17;77.36;;
45651;Laerm;31365;48.858;8.530;2023-03-09T05:49:33;65.76;44.07;77.47;;
45651;Laerm;31365;48.858;8.530;2023-03-09T05:52:02;64.15;42.22;77.14;;
45651;Laerm;31365;48.858;8.530;2023-03-09T05:54:32;67.60;45.20;83.56;;
45651;Laerm;31365;48.858;8.530;2023-03-09T05:57:10;63.58;43.81;78.85;;
45651;Laerm;31365;48.858;8.530;2023-03-09T05:59:40;67.44;47.14;81.33;;
45651;Laerm;31365;48.858;8.530;2023-03-09T06:02:09;66.56;43.86;91.40;;
45651;Laerm;31365;48.858;8.530;2023-03-09T06:04:41;65.84;45.42;79.61;;
45651;Laerm;31365;48.858;8.530;2023-03-09T06:07:11;67.56;44.07;83.50;;
45651;Laerm;31365;48.858;8.530;2023-03-09T06:09:44;66.95;42.65;84.94;;
45651;Laerm;31365;48.858;8.530;2023-03-09T06:14:50;67.33;43.44;79.68;;
45651;Laerm;31365;48.858;8.530;2023-03-09T06:17:21;65.61;43.49;78.35;;
45651;Laerm;31365;48.858;8.530;2023-03-09T06:19:52;65.64;43.49;81.35;;
45651;Laerm;31365;48.858;8.530;2023-03-09T06:22:21;67.00;43.77;83.66;;
45651;Laerm;31365;48.858;8.530;2023-03-09T06:24:50;67.18;43.19;83.35;;
45651;Laerm;31365;48.858;8.530;2023-03-09T06:27:20;65.87;45.28;79.79;;
45651;Laerm;31365;48.858;8.530;2023-03-09T06:29:49;67.31;43.90;81.52;;
45651;Laerm;31365;48.858;8.530;2023-03-09T06:32:18;66.40;43.77;81.09;;
45651;Laerm;31365;48.858;8.530;2023-03-09T06:34:47;64.91;43.72;78.80;;
45651;Laerm;31365;48.858;8.530;2023-03-09T06:37:17;67.22;43.63;80.10;;
45651;Laerm;31365;48.858;8.530;2023-03-09T06:39:47;65.92;43.54;79.11;;
45651;Laerm;31365;48.858;8.530;2023-03-09T06:42:16;63.77;50.49;77.48;;
45651;Laerm;31365;48.858;8.530;2023-03-09T06:44:51;66.08;46.13;83.00;;
45651;Laerm;31365;48.858;8.530;2023-03-09T06:47:22;66.59;46.02;78.21;;
45651;Laerm;31365;48.858;8.530;2023-03-09T06:49:57;66.95;46.10;81.63;;
45651;Laerm;31365;48.858;8.530;2023-03-09T06:52:27;65.60;45.20;79.45;;
45651;Laerm;31365;48.858;8.530;2023-03-09T06:54:55;67.89;47.00;84.57;;
45651;Laerm;31365;48.858;8.530;2023-03-09T06:57:42;64.13;44.47;84.71;;
45651;Laerm;31365;48.858;8.530;2023-03-09T07:00:15;66.87;45.80;84.43;;
45651;Laerm;31365;48.858;8.530;2023-03-09T07:02:46;65.50;43.99;82.40;;
45651;Laerm;31365;48.858;8.530;2023-03-09T07:05:16;65.84;43.58;85.36;;
45651;Laerm;31365;48.858;8.530;2023-03-09T07:07:44;66.96;44.03;85.39;;
45651;Laerm;31365;48.858;8.530;2023-03-09T07:10:12;64.68;43.04;79.47;;
45651;Laerm;31365;48.858;8.530;2023-03-09T07:12:41;63.39;42.59;78.98;;
45651;Laerm;31365;48.858;8.530;2023-03-09T07:15:11;62.77;46.05;76.63;;
45651;Laerm;31365;48.858;8.530;2023-03-09T07:17:40;63.64;44.03;77.36;;
45651;Laerm;31365;48.858;8.530;2023-03-09T07:20:11;66.13;43.58;83.57;;
45651;Laerm;31365;48.858;8.530;2023-03-09T07:22:39;64.15;43.24;75.06;;
45651;Laerm;31365;48.858;8.530;2023-03-09T07:25:09;65.00;44.97;81.11;;
45651;Laerm;31365;48.858;8.530;2023-03-09T07:27:38;65.00;44.97;81.11;;
45651;Laerm;31365;48.858;8.530;2023-03-09T07:30:08;63.46;44.39;77.54;;
45651;Laerm;31365;48.858;8.530;2023-03-09T07:32:37;63.71;44.51;77.40;;
45651;Laerm;31365;48.858;8.530;2023-03-09T07:35:08;65.71;43.90;82.05;;
45651;Laerm;31365;48.858;8.530;2023-03-09T07:37:37;62.59;43.63;79.66;;
45651;Laerm;31365;48.858;8.530;2023-03-09T07:40:09;62.08;42.47;75.61;;
45651;Laerm;31365;48.858;8.530;2023-03-09T07:42:38;69.92;44.39;91.66;;
45651;Laerm;31365;48.858;8.530;2023-03-09T07:45:26;60.77;41.82;81.24;;
45651;Laerm;31365;48.858;8.530;2023-03-09T07:47:55;64.26;43.37;78.69;;
45651;Laerm;31365;48.858;8.530;2023-03-09T07:50:25;61.66;45.20;74.75;;
45651;Laerm;31365;48.858;8.530;2023-03-09T07:52:54;63.01;43.29;78.66;;
45651;Laerm;31365;48.858;8.530;2023-03-09T07:55:22;65.63;45.01;80.28;;
45651;Laerm;31365;48.858;8.530;2023-03-09T07:57:51;71.72;47.70;91.34;;
45651;Laerm;31365;48.858;8.530;2023-03-09T08:00:20;63.55;46.45;78.47;;
45651;Laerm;31365;48.858;8.530;2023-03-09T08:02:50;65.73;49.23;77.84;;
45651;Laerm;31365;48.858;8.530;2023-03-09T08:05:20;67.66;50.12;82.45;;
45651;Laerm;31365;48.858;8.530;2023-03-09T08:07:50;62.37;45.77;75.73;;
45651;Laerm;31365;48.858;8.530;2023-03-09T08:10:19;65.42;46.82;82.71;;
45651;Laerm;31365;48.858;8.530;2023-03-09T08:12:49;64.28;41.55;80.36;;
45651;Laerm;31365;48.858;8.530;2023-03-09T08:15:18;61.59;42.03;73.09;;
45651;Laerm;31365;48.858;8.530;2023-03-09T08:17:47;65.69;41.75;79.50;;
45651;Laerm;31365;48.858;8.530;2023-03-09T08:20:16;64.63;44.31;78.25;;
45651;Laerm;31365;48.858;8.530;2023-03-09T08:22:45;62.74;43.24;75.95;;
45651;Laerm;31365;48.858;8.530;2023-03-09T08:25:17;68.25;45.42;86.97;;
45651;Laerm;31365;48.858;8.530;2023-03-09T08:27:46;63.47;44.15;75.82;;
45651;Laerm;31365;48.858;8.530;2023-03-09T08:30:18;67.88;43.19;80.43;;
45651;Laerm;31365;48.858;8.530;2023-03-09T08:32:48;63.42;42.71;76.32;;
45651;Laerm;31365;48.858;8.530;2023-03-09T08:35:20;66.14;43.09;82.67;;
45651;Laerm;31365;48.858;8.530;2023-03-09T08:37:49;63.81;45.11;75.93;;
45651;Laerm;31365;48.858;8.530;2023-03-09T08:40:19;65.49;43.24;82.71;;
45651;Laerm;31365;48.858;8.530;2023-03-09T08:42:48;74.13;42.98;93.44;;
45651;Laerm;31365;48.858;8.530;2023-03-09T08:45:17;61.06;41.96;89.66;;
45651;Laerm;31365;48.858;8.530;2023-03-09T08:47:46;67.74;43.19;84.66;;
45651;Laerm;31365;48.858;8.530;2023-03-09T08:50:15;64.40;43.14;77.50;;
45651;Laerm;31365;48.858;8.530;2023-03-09T08:52:44;64.17;43.34;78.61;;
45651;Laerm;31365;48.858;8.530;2023-03-09T08:55:13;64.17;43.34;78.61;;
45651;Laerm;31365;48.858;8.530;2023-03-09T08:57:43;65.25;43.94;78.47;;
45651;Laerm;31365;48.858;8.530;2023-03-09T09:00:13;64.50;43.86;77.42;;
45651;Laerm;31365;48.858;8.530;2023-03-09T09:05:10;62.90;40.43;77.11;;
45651;Laerm;31365;48.858;8.530;2023-03-09T09:07:39;65.17;45.42;76.21;;
45651;Laerm;31365;48.858;8.530;2023-03-09T09:13:02;64.03;43.99;86.86;;
45651;Laerm;31365;48.858;8.530;2023-03-09T09:15:30;65.53;44.23;81.07;;
45651;Laerm;31365;48.858;8.530;2023-03-09T09:17:59;57.76;40.71;75.86;;
45651;Laerm;31365;48.858;8.530;2023-03-09T09:20:28;65.51;43.99;78.85;;
45651;Laerm;31365;48.858;8.530;2023-03-09T09:22:56;61.99;42.53;76.88;;
45651;Laerm;31365;48.858;8.530;2023-03-09T09:25:25;65.95;42.53;78.96;;
45651;Laerm;31365;48.858;8.530;2023-03-09T09:27:53;62.72;40.53;78.49;;
45651;Laerm;31365;48.858;8.530;2023-03-09T09:30:24;65.50;45.14;78.32;;
45651;Laerm;31365;48.858;8.530;2023-03-09T09:32:52;65.79;42.82;80.47;;
45651;Laerm;31365;48.858;8.530;2023-03-09T09:35:21;63.09;45.17;76.53;;
45651;Laerm;31365;48.858;8.530;2023-03-09T09:37:49;66.47;43.19;83.06;;
45651;Laerm;31365;48.858;8.530;2023-03-09T09:40:19;66.74;43.34;80.32;;
45651;Laerm;31365;48.858;8.530;2023-03-09T09:42:48;65.26;41.89;79.65;;
45651;Laerm;31365;48.858;8.530;2023-03-09T09:45:33;64.67;42.35;81.08;;
45651;Laerm;31365;48.858;8.530;2023-03-09T09:48:05;60.89;42.47;72.43;;
45651;Laerm;31365;48.858;8.530;2023-03-09T09:50:57;63.40;43.90;74.68;;
45651;Laerm;31365;48.858;8.530;2023-03-09T09:53:40;60.84;42.47;74.52;;
45651;Laerm;31365;48.858;8.530;2023-03-09T09:56:16;63.95;44.15;81.39;;
45651;Laerm;31365;48.858;8.530;2023-03-09T09:58:52;65.23;41.75;82.73;;
45651;Laerm;31365;48.858;8.530;2023-03-09T10:01:41;63.60;43.58;74.16;;
45651;Laerm;31365;48.858;8.530;2023-03-09T10:04:20;63.03;44.15;75.94;;
45651;Laerm;31365;48.858;8.530;2023-03-09T10:06:52;64.99;48.25;80.21;;
45651;Laerm;31365;48.858;8.530;2023-03-09T10:09:28;64.45;43.14;77.39;;
45651;Laerm;31365;48.858;8.530;2023-03-09T10:12:07;67.09;43.77;83.87;;
45651;Laerm;31365;48.858;8.530;2023-03-09T10:14:44;65.50;42.93;79.91;;
45651;Laerm;31365;48.858;8.530;2023-03-09T10:17:26;61.30;42.76;90.44;;
45651;Laerm;31365;48.858;8.530;2023-03-09T10:20:00;65.40;42.35;87.63;;
45651;Laerm;31365;48.858;8.530;2023-03-09T10:22:30;67.30;42.93;79.98;;
45651;Laerm;31365;48.858;8.530;2023-03-09T10:25:00;57.12;40.43;72.38;;
45651;Laerm;31365;48.858;8.530;2023-03-09T10:27:36;64.36;45.27;75.77;;
45651;Laerm;31365;48.858;8.530;2023-03-09T10:30:19;61.85;42.71;73.30;;
45651;Laerm;31365;48.858;8.530;2023-03-09T10:32:55;61.09;44.31;78.89;;
45651;Laerm;31365;48.858;8.530;2023-03-09T10:35:32;60.45;42.93;73.04;;
45651;Laerm;31365;48.858;8.530;2023-03-09T10:38:04;61.49;42.82;75.46;;
45651;Laerm;31365;48.858;8.530;2023-03-09T10:45:16;63.09;44.79;77.10;;
45651;Laerm;31365;48.858;8.530;2023-03-09T10:47:57;65.63;43.49;82.68;;
45651;Laerm;31365;48.858;8.530;2023-03-09T10:50:30;63.21;43.09;78.47;;
45651;Laerm;31365;48.858;8.530;2023-03-09T10:56:47;69.36;42.41;84.23;;
45651;Laerm;31365;48.858;8.530;2023-03-09T10:59:26;63.83;41.96;79.92;;
45651;Laerm;31365;48.858;8.530;2023-03-09T11:01:58;64.61;44.58;84.64;;
45651;Laerm;31365;48.858;8.530;2023-03-09T11:04:37;66.14;43.24;81.12;;
45651;Laerm;31365;48.858;8.530;2023-03-09T11:07:19;66.19;42.98;85.70;;
45651;Laerm;31365;48.858;8.530;2023-03-09T11:09:51;63.17;43.81;76.05;;
45651;Laerm;31365;48.858;8.530;2023-03-09T11:12:25;61.60;41.22;79.17;;
45651;Laerm;31365;48.858;8.530;2023-03-09T11:14:59;63.66;42.71;78.24;;
45651;Laerm;31365;48.858;8.530;2023-03-09T11:17:38;64.61;41.89;78.37;;
45651;Laerm;31365;48.858;8.530;2023-03-09T11:20:34;61.70;43.04;76.30;;
45651;Laerm;31365;48.858;8.530;2023-03-09T11:23:16;66.35;50.99;77.56;;
45651;Laerm;31365;48.858;8.530;2023-03-09T11:26:01;64.51;50.27;76.78;;
45651;Laerm;31365;48.858;8.530;2023-03-09T11:28:47;66.83;50.05;80.02;;
45651;Laerm;31365;48.858;8.530;2023-03-09T11:31:23;64.17;42.82;76.68;;
45651;Laerm;31365;48.858;8.530;2023-03-09T11:33:55;63.10;43.14;81.24;;
45651;Laerm;31365;48.858;8.530;2023-03-09T11:36:37;63.65;41.53;77.80;;
45651;Laerm;31365;48.858;8.530;2023-03-09T11:39:18;62.69;41.53;80.90;;
45651;Laerm;31365;48.858;8.530;2023-03-09T11:41:49;64.10;42.06;78.63;;
45651;Laerm;31365;48.858;8.530;2023-03-09T11:44:28;63.84;44.23;79.34;;
45651;Laerm;31365;48.858;8.530;2023-03-09T11:47:04;64.09;43.63;89.48;;
45651;Laerm;31365;48.858;8.530;2023-03-09T11:49:35;64.58;43.49;79.07;;
45651;Laerm;31365;48.858;8.530;2023-03-09T11:52:10;62.69;43.86;79.76;;
45651;Laerm;31365;48.858;8.530;2023-03-09T11:54:51;62.56;41.30;75.80;;
45651;Laerm;31365;48.858;8.530;2023-03-09T12:06:32;65.15;42.03;82.60;;
45651;Laerm;31365;48.858;8.530;2023-03-09T12:09:09;68.08;42.88;87.88;;
45651;Laerm;31365;48.858;8.530;2023-03-09T12:11:44;64.63;43.09;82.25;;
45651;Laerm;31365;48.858;8.530;2023-03-09T12:14:21;66.97;45.77;84.62;;
45651;Laerm;31365;48.858;8.530;2023-03-09T12:19:26;62.25;41.46;78.47;;
45651;Laerm;31365;48.858;8.530;2023-03-09T12:22:03;65.56;43.72;88.72;;
45651;Laerm;31365;48.858;8.530;2023-03-09T12:24:38;64.52;41.75;77.70;;
45651;Laerm;31365;48.858;8.530;2023-03-09T12:27:19;66.58;44.47;83.83;;
45651;Laerm;31365;48.858;8.530;2023-03-09T12:29:52;66.58;41.89;82.26;;
45651;Laerm;31365;48.858;8.530;2023-03-09T12:32:40;62.35;41.75;78.38;;
45651;Laerm;31365;48.858;8.530;2023-03-09T12:35:57;66.31;44.76;83.76;;
45651;Laerm;31365;48.858;8.530;2023-03-09T12:38:28;66.23;44.69;81.21;;
45651;Laerm;31365;48.858;8.530;2023-03-09T12:40:58;64.31;40.62;82.25;;
45651;Laerm;31365;48.858;8.530;2023-03-09T12:43:53;64.32;41.96;76.00;;
45651;Laerm;31365;48.858;8.530;2023-03-09T12:46:59;62.84;42.53;78.95;;
45651;Laerm;31365;48.858;8.530;2023-03-09T12:49:34;64.00;43.34;75.56;;
45651;Laerm;31365;48.858;8.530;2023-03-09T12:52:37;66.59;42.93;85.91;;
45651;Laerm;31365;48.858;8.530;2023-03-09T12:55:16;63.37;43.34;74.73;;
45651;Laerm;31365;48.858;8.530;2023-03-09T12:57:50;64.53;44.87;78.43;;
45651;Laerm;31365;48.858;8.530;2023-03-09T13:00:29;65.19;43.99;80.49;;
45651;Laerm;31365;48.858;8.530;2023-03-09T13:03:13;64.18;43.05;78.91;;
45651;Laerm;31365;48.858;8.530;2023-03-09T13:05:47;62.62;43.72;82.97;;
45651;Laerm;31365;48.858;8.530;2023-03-09T13:08:22;61.11;41.38;74.24;;
45651;Laerm;31365;48.858;8.530;2023-03-09T13:11:28;63.78;42.41;77.61;;
45651;Laerm;31365;48.858;8.530;2023-03-09T13:14:02;67.85;44.73;84.08;;
45651;Laerm;31365;48.858;8.530;2023-03-09T13:16:52;65.29;42.16;83.58;;
45651;Laerm;31365;48.858;8.530;2023-03-09T13:19:49;60.91;41.53;76.45;;
45651;Laerm;31365;48.858;8.530;2023-03-09T13:22:29;63.77;42.58;78.88;;
45651;Laerm;31365;48.858;8.530;2023-03-09T13:25:45;65.79;42.41;80.52;;
45651;Laerm;31365;48.858;8.530;2023-03-09T13:28:28;63.64;42.22;79.88;;
45651;Laerm;31365;48.858;8.530;2023-03-09T13:31:19;61.90;39.08;77.14;;
45651;Laerm;31365;48.858;8.530;2023-03-09T13:33:49;69.34;42.90;87.76;;
45651;Laerm;31365;48.858;8.530;2023-03-09T13:36:22;68.33;42.98;86.60;;
45651;Laerm;31365;48.858;8.530;2023-03-09T13:38:56;64.14;41.75;75.52;;
45651;Laerm;31365;48.858;8.530;2023-03-09T13:41:27;66.15;42.03;80.82;;
45651;Laerm;31365;48.858;8.530;2023-03-09T13:43:56;64.18;42.22;79.31;;
45651;Laerm;31365;48.858;8.530;2023-03-09T13:46:32;61.92;42.88;76.35;;
45651;Laerm;31365;48.858;8.530;2023-03-09T13:49:06;63.05;41.46;74.44;;
45651;Laerm;31365;48.858;8.530;2023-03-09T13:51:44;68.44;42.65;87.13;;
45651;Laerm;31365;48.858;8.530;2023-03-09T13:54:28;63.82;42.98;79.99;;
45651;Laerm;31365;48.858;8.530;2023-03-09T13:57:14;64.02;42.41;83.18;;
45651;Laerm;31365;48.858;8.530;2023-03-09T14:00:10;64.48;42.82;80.19;;
45651;Laerm;31365;48.858;8.530;2023-03-09T14:02:44;64.60;43.77;82.68;;
45651;Laerm;31365;48.858;8.530;2023-03-09T14:05:19;64.06;43.44;79.90;;
45651;Laerm;31365;48.858;8.530;2023-03-09T14:08:18;60.76;39.99;77.15;;
45651;Laerm;31365;48.858;8.530;2023-03-09T14:10:48;62.77;41.14;78.55;;
45651;Laerm;31365;48.858;8.530;2023-03-09T14:13:20;64.89;42.93;83.83;;
45651;Laerm;31365;48.858;8.530;2023-03-09T14:16:02;63.69;43.72;80.50;;
45651;Laerm;31365;48.858;8.530;2023-03-09T14:18:40;69.11;42.93;89.19;;
45651;Laerm;31365;48.858;8.530;2023-03-09T14:21:24;61.19;41.61;73.92;;
45651;Laerm;31365;48.858;8.530;2023-03-09T14:23:55;62.45;41.75;79.03;;
45651;Laerm;31365;48.858;8.530;2023-03-09T14:26:28;63.78;41.61;78.33;;
45651;Laerm;31365;48.858;8.530;2023-03-09T14:29:01;64.22;41.89;82.44;;
45651;Laerm;31365;48.858;8.530;2023-03-09T14:31:30;70.03;43.58;87.65;;
45651;Laerm;31365;48.858;8.530;2023-03-09T14:34:03;63.16;41.94;78.79;;
45651;Laerm;31365;48.858;8.530;2023-03-09T14:36:37;62.61;43.68;75.15;;
45651;Laerm;31365;48.858;8.530;2023-03-09T14:39:22;63.73;42.76;79.41;;
45651;Laerm;31365;48.858;8.530;2023-03-09T14:42:16;64.13;43.24;80.84;;
45651;Laerm;31365;48.858;8.530;2023-03-09T14:44:47;64.47;41.22;77.50;;
45651;Laerm;31365;48.858;8.530;2023-03-09T14:47:26;63.50;43.54;79.03;;
45651;Laerm;31365;48.858;8.530;2023-03-09T14:49:56;70.58;44.07;88.91;;
45651;Laerm;31365;48.858;8.530;2023-03-09T14:52:28;63.77;43.46;77.70;;
45651;Laerm;31365;48.858;8.530;2023-03-09T14:55:00;67.87;42.29;87.51;;